Time;durP1;ratioP1;P1;durP2;ratioP2;P2;SDS_P1;SDS_P2;PMS_P1;PMS_P2;Temp;Humidity;BMP_temperature;BMP_pressure;BME280_temperature;BME280_humidity;BME280_pressure;Samples;Min_cycle;Max_cycle;Signal;HPM_P1;HPM_P2
2022/05/17 00:01:28;;;;;;;9.32;4.07;;;;;;;15.12;71.53;101897.38;4987293;28;20026;-63
2022/05/17 00:03:54;;;;;;;10.18;4.47;;;;;;;15.15;70.84;101894.53;4986516;28;20034;-62
2022/05/17 00:06:20;;;;;;;10.60;4.60;;;;;;;15.02;71.57;101901.72;4986680;28;20411;-61
2022/05/17 00:08:45;;;;;;;10.68;4.07;;;;;;;15.10;71.42;101899.31;4986830;28;20024;-62
2022/05/17 00:11:10;;;;;;;10.32;4.90;;;;;;;15.14;71.19;101901.53;4986452;28;20073;-61
2022/05/17 00:13:36;;;;;;;10.40;4.75;;;;;;;15.18;70.83;101902.09;4989351;28;20042;-61
2022/05/17 00:16:02;;;;;;;12.25;4.70;;;;;;;15.16;71.06;101898.78;5005681;28;20033;-65
2022/05/17 00:18:29;;;;;;;10.32;4.45;;;;;;;15.11;71.49;101896.56;5005382;28;20033;-62
2022/05/17 00:20:55;;;;;;;9.38;4.38;;;;;;;15.15;71.39;101897.13;5005790;28;20056;-61
2022/05/17 00:23:20;;;;;;;10.40;4.60;;;;;;;15.15;71.03;101881.44;4991838;28;20034;-62
2022/05/17 00:25:48;;;;;;;10.23;4.43;;;;;;;15.19;71.06;101890.66;4986160;28;20069;-62
2022/05/17 00:28:15;;;;;;;11.30;4.45;;;;;;;15.09;71.49;101892.44;4986185;28;20332;-65
2022/05/17 00:30:42;;;;;;;10.50;4.50;;;;;;;15.13;71.37;101893.81;4986309;28;20026;-61
2022/05/17 00:33:07;;;;;;;8.93;4.45;;;;;;;15.13;71.51;101872.91;4985983;28;20489;-65
2022/05/17 00:35:33;;;;;;;10.57;4.70;;;;;;;15.13;71.71;101883.34;4985642;28;20026;-61
2022/05/17 00:37:58;;;;;;;9.43;4.47;;;;;;;15.19;71.25;101888.06;4986189;28;20102;-61
2022/05/17 00:40:24;;;;;;;9.98;4.53;;;;;;;15.25;71.20;101892.75;4986253;28;20458;-61
2022/05/17 00:42:49;;;;;;;10.88;4.65;;;;;;;15.22;71.54;101892.22;4985459;28;20042;-61
2022/05/17 00:45:14;;;;;;;7.15;4.07;;;;;;;15.26;71.25;101881.38;4985623;28;20030;-61
2022/05/17 00:47:47;;;;;;;10.10;4.70;;;;;;;15.14;71.89;101892.88;4985925;28;20644;-61
2022/05/17 00:50:30;;;;;;;9.80;4.35;;;;;;;15.24;71.31;101891.13;4985355;28;20474;-63
2022/05/17 00:53:03;;;;;;;9.50;4.82;;;;;;;15.22;71.87;101885.19;4985675;28;20038;-65
2022/05/17 00:55:34;;;;;;;9.07;4.18;;;;;;;15.22;72.04;101887.00;4983940;28;20485;-64
2022/05/17 00:58:09;;;;;;;9.18;4.43;;;;;;;15.27;71.63;101885.66;4986009;28;20041;-61
2022/05/17 01:00:39;;;;;;;9.45;4.72;;;;;;;15.24;71.84;101890.28;4985720;28;20034;-61
2022/05/17 01:03:09;;;;;;;9.95;4.78;;;;;;;15.22;71.81;101879.16;4985480;28;20038;-61
2022/05/17 01:05:43;;;;;;;9.00;4.13;;;;;;;15.25;71.72;101876.25;4985190;28;20490;-61
2022/05/17 01:08:12;;;;;;;9.60;4.28;;;;;;;15.17;72.19;101869.06;4985717;28;20026;-61
2022/05/17 01:10:37;;;;;;;11.45;4.70;;;;;;;15.13;72.18;101872.91;4989880;28;20413;-65
2022/05/17 01:15:46;;;;;;;9.13;4.43;;;;;;;15.17;72.45;101874.31;4989786;28;20573;-62
2022/05/17 01:18:12;;;;;;;8.38;4.25;;;;;;;15.16;72.82;101872.66;4969430;28;20121;-63
2022/05/17 01:20:38;;;;;;;10.23;4.82;;;;;;;15.13;73.06;101870.28;5008147;28;20062;-62
2022/05/17 01:23:04;;;;;;;8.98;4.97;;;;;;;15.16;72.72;101872.66;5010121;28;20061;-61
2022/05/17 01:25:30;;;;;;;9.32;4.82;;;;;;;15.13;72.72;101878.13;4997072;28;20126;-62
2022/05/17 01:28:03;;;;;;;7.88;4.63;;;;;;;15.14;72.95;101895.47;4992669;28;20030;-62
2022/05/17 01:30:30;;;;;;;8.25;4.75;;;;;;;15.13;72.80;101892.00;4990175;28;20035;-65
2022/05/17 01:32:56;;;;;;;8.65;4.32;;;;;;;15.08;73.11;101880.28;4990493;28;20034;-62
2022/05/17 01:35:21;;;;;;;8.85;4.32;;;;;;;15.17;72.46;101882.16;4990188;28;20034;-61
2022/05/17 01:37:55;;;;;;;9.40;4.72;;;;;;;15.14;73.03;101885.03;4989736;28;20034;-61
2022/05/17 01:40:23;;;;;;;9.48;4.60;;;;;;;15.10;73.31;101883.63;4990137;28;20027;-65
2022/05/17 01:42:49;;;;;;;8.73;4.80;;;;;;;15.09;73.41;101892.44;4990211;28;20043;-64
2022/05/17 01:45:14;;;;;;;10.45;4.82;;;;;;;15.15;73.21;101881.44;4975367;28;20349;-61
2022/05/17 01:47:39;;;;;;;9.85;4.63;;;;;;;15.17;73.27;101882.16;4989502;28;20037;-61
2022/05/17 01:50:05;;;;;;;10.40;5.10;;;;;;;15.08;73.42;101880.28;4989821;28;20034;-62
2022/05/17 01:52:30;;;;;;;8.95;4.75;;;;;;;15.09;73.44;101877.56;4990996;28;20740;-65
2022/05/17 01:54:56;;;;;;;9.13;4.65;;;;;;;15.07;73.58;101870.81;4973077;28;20042;-61
2022/05/17 01:57:21;;;;;;;8.55;4.78;;;;;;;15.03;73.49;101870.25;4990030;28;20053;-62
2022/05/17 01:59:47;;;;;;;9.65;5.13;;;;;;;15.16;73.13;101877.06;4989926;28;20109;-61
2022/05/17 02:02:12;;;;;;;9.10;4.93;;;;;;;15.11;73.29;101873.03;4989556;28;20475;-61
2022/05/17 02:04:38;;;;;;;9.85;5.07;;;;;;;15.10;73.48;101875.78;4990099;28;20081;-62
2022/05/17 02:07:04;;;;;;;9.20;5.07;;;;;;;15.17;72.79;101873.47;4989614;28;20060;-62
2022/05/17 02:09:29;;;;;;;11.02;5.65;;;;;;;15.06;74.08;101884.81;4996796;28;20482;-62
2022/05/17 02:11:55;;;;;;;10.35;5.57;;;;;;;15.02;73.62;101886.03;5004615;28;20026;-61
2022/05/17 02:14:20;;;;;;;10.00;5.55;;;;;;;14.95;74.19;101879.66;4989951;28;20093;-63
2022/05/17 02:16:46;;;;;;;10.77;5.90;;;;;;;15.07;73.63;101886.47;4991164;28;20030;-61
2022/05/17 02:19:12;;;;;;;10.07;5.70;;;;;;;15.11;73.36;101886.09;4996501;28;20482;-61
2022/05/17 02:21:37;;;;;;;13.30;5.88;;;;;;;15.11;73.37;101886.09;4989526;28;20026;-61
2022/05/17 02:24:06;;;;;;;11.43;6.10;;;;;;;15.12;73.86;101892.16;4989620;28;20053;-62
2022/05/17 02:26:32;;;;;;;12.45;5.75;;;;;;;15.06;73.79;101892.66;5009223;28;20065;-66
2022/05/17 02:28:57;;;;;;;9.90;5.50;;;;;;;15.13;73.20;101888.56;5007507;28;20689;-61
2022/05/17 02:31:23;;;;;;;12.90;6.30;;;;;;;15.08;72.99;101885.50;4971945;28;20070;-61
2022/05/17 02:33:48;;;;;;;13.77;5.97;;;;;;;15.05;73.65;101896.25;4990096;28;20067;-61
2022/05/17 02:36:14;;;;;;;13.30;6.40;;;;;;;15.09;73.02;101893.25;4989717;28;20056;-62
2022/05/17 02:38:40;;;;;;;10.82;6.40;;;;;;;15.07;73.72;101894.31;4989709;28;20146;-63
2022/05/17 02:41:06;;;;;;;10.95;6.20;;;;;;;15.12;73.09;101897.38;4989092;28;20169;-61
2022/05/17 02:43:33;;;;;;;12.10;6.35;;;;;;;15.10;73.47;101904.53;4999166;28;20097;-62
2022/05/17 02:45:58;;;;;;;10.82;6.65;;;;;;;15.12;73.00;101897.38;5002116;28;20026;-66
2022/05/17 02:48:24;;;;;;;12.43;6.38;;;;;;;15.04;73.06;101886.75;4990087;28;20026;-61
2022/05/17 02:50:49;;;;;;;11.30;6.70;;;;;;;15.05;73.42;101901.47;4993538;28;20084;-61
2022/05/17 02:53:15;;;;;;;11.23;6.22;;;;;;;14.97;73.12;101903.91;4989822;28;20363;-63
2022/05/17 02:55:40;;;;;;;11.40;6.30;;;;;;;14.99;73.10;101896.75;4990058;28;20038;-61
2022/05/17 02:58:06;;;;;;;11.15;7.00;;;;;;;14.93;73.65;101905.94;4992033;28;20474;-61
2022/05/17 03:00:32;;;;;;;11.48;6.72;;;;;;;14.93;73.37;101900.69;4988691;28;20077;-65
2022/05/17 03:02:58;;;;;;;13.50;6.38;;;;;;;14.93;73.52;101905.09;4970535;28;20027;-61
2022/05/17 03:05:24;;;;;;;12.82;6.93;;;;;;;14.90;73.67;101913.19;4952689;28;20034;-61
2022/05/17 03:07:50;;;;;;;9.95;6.75;;;;;;;14.93;73.56;101912.94;4970383;28;20034;-63
2022/05/17 03:10:17;;;;;;;10.52;6.40;;;;;;;14.91;74.11;101914.81;4981035;28;20150;-63
2022/05/17 03:12:44;;;;;;;11.60;7.05;;;;;;;14.84;73.99;101909.28;4989637;28;20043;-61
2022/05/17 03:15:17;;;;;;;12.57;6.72;;;;;;;14.81;74.24;101910.38;4991325;28;20026;-65
2022/05/17 03:17:43;;;;;;;12.98;6.65;;;;;;;14.75;74.17;101913.50;4989731;28;20058;-63
2022/05/17 03:20:08;;;;;;;11.52;7.10;;;;;;;14.78;74.63;101912.41;4997132;28;20060;-61
2022/05/17 03:22:34;;;;;;;11.80;7.03;;;;;;;14.86;74.15;101912.63;4987990;28;20090;-61
2022/05/17 03:24:59;;;;;;;11.20;6.97;;;;;;;14.90;74.03;101913.19;4987605;28;20034;-62
2022/05/17 03:27:25;;;;;;;13.43;7.30;;;;;;;14.86;73.43;101910.84;4989464;28;20054;-61
2022/05/17 03:29:50;;;;;;;11.80;6.72;;;;;;;14.90;73.83;101908.78;4989380;28;20026;-61
2022/05/17 03:32:15;;;;;;;12.65;7.30;;;;;;;14.87;74.04;101909.88;4988951;28;20141;-61
2022/05/17 03:34:41;;;;;;;11.63;7.72;;;;;;;14.83;73.79;101900.63;4989056;28;20076;-61
2022/05/17 03:37:06;;;;;;;11.60;7.32;;;;;;;14.77;74.15;101898.53;4989266;28;20116;-61
2022/05/17 03:39:31;;;;;;;14.18;7.85;;;;;;;14.79;74.60;101912.28;4988776;28;20040;-61
2022/05/17 03:41:57;;;;;;;10.73;6.93;;;;;;;14.77;74.20;101908.13;4988855;28;20038;-61
2022/05/17 03:44:22;;;;;;;15.95;7.68;;;;;;;14.70;74.44;101910.44;4988086;28;20077;-61
2022/05/17 03:46:47;;;;;;;12.18;7.18;;;;;;;14.68;74.54;101898.44;4988150;28;20038;-62
2022/05/17 03:49:13;;;;;;;13.07;7.82;;;;;;;14.69;74.74;101900.94;4988421;28;20469;-61
2022/05/17 03:51:38;;;;;;;11.38;6.97;;;;;;;14.66;75.19;101898.56;4988107;28;20520;-63
2022/05/17 03:54:04;;;;;;;12.23;6.88;;;;;;;14.69;74.46;101900.94;4987857;28;20026;-61
2022/05/17 03:56:30;;;;;;;11.45;7.10;;;;;;;14.66;74.99;101909.00;4987721;28;20018;-61
2022/05/17 03:58:55;;;;;;;12.27;6.78;;;;;;;14.80;74.46;101913.13;4988808;28;20053;-63
2022/05/17 04:01:20;;;;;;;11.73;6.97;;;;;;;14.84;74.19;101915.34;4987928;28;20701;-60
2022/05/17 04:03:46;;;;;;;11.13;7.10;;;;;;;14.74;74.51;101898.78;4988303;28;20474;-61
2022/05/17 04:06:11;;;;;;;12.65;7.60;;;;;;;14.63;74.97;101895.41;4980588;28;20052;-61
2022/05/17 04:08:37;;;;;;;13.77;7.10;;;;;;;14.66;74.51;101905.56;4987822;28;20059;-63
2022/05/17 04:11:06;;;;;;;12.52;7.35;;;;;;;14.72;74.62;101921.56;4987359;28;20030;-61
2022/05/17 04:13:32;;;;;;;12.77;7.03;;;;;;;14.72;74.52;101915.53;4985343;28;20073;-62
2022/05/17 04:15:59;;;;;;;11.40;6.95;;;;;;;14.72;74.85;101916.34;4992246;28;20379;-62
2022/05/17 04:18:25;;;;;;;12.38;7.13;;;;;;;14.78;74.83;101910.63;5002713;28;20497;-61
2022/05/17 04:20:50;;;;;;;12.75;7.38;;;;;;;14.81;74.44;101915.59;4987559;28;20084;-61
2022/05/17 04:23:16;;;;;;;11.75;7.22;;;;;;;14.82;74.50;101916.44;4986811;28;20494;-61
2022/05/17 04:25:41;;;;;;;11.43;7.07;;;;;;;14.71;74.79;101914.69;4987992;28;20132;-61
2022/05/17 04:28:07;;;;;;;11.85;7.47;;;;;;;14.78;74.75;101921.06;4988181;28;20038;-61
2022/05/17 04:30:32;;;;;;;12.95;7.32;;;;;;;14.79;74.81;101921.88;4987824;28;20030;-61
2022/05/17 04:33:00;;;;;;;12.88;6.97;;;;;;;14.80;74.94;101918.34;4987095;28;20022;-62
2022/05/17 04:35:26;;;;;;;14.48;7.05;;;;;;;14.76;75.23;101917.75;4987164;28;20026;-62
2022/05/17 04:37:51;;;;;;;13.25;7.75;;;;;;;14.82;74.69;101922.47;4987935;28;20030;-61
2022/05/17 04:40:18;;;;;;;13.65;7.63;;;;;;;14.83;74.91;101929.34;4986961;28;20486;-63
2022/05/17 04:42:43;;;;;;;12.05;7.45;;;;;;;14.85;74.99;101931.84;4987841;28;20071;-61
2022/05/17 04:45:13;;;;;;;13.00;7.60;;;;;;;14.86;75.17;101931.72;4987694;28;20050;-62
2022/05/17 04:47:39;;;;;;;12.70;7.60;;;;;;;14.87;75.02;101929.94;4987566;28;20022;-62
2022/05/17 04:50:05;;;;;;;12.27;7.72;;;;;;;14.84;75.54;101933.63;4990984;28;20037;-61
2022/05/17 04:52:30;;;;;;;11.73;7.32;;;;;;;14.87;75.23;101929.94;4987693;28;20026;-64
2022/05/17 04:54:56;;;;;;;13.30;8.05;;;;;;;14.87;75.17;101941.22;4987807;28;20076;-61
2022/05/17 04:57:22;;;;;;;11.45;7.95;;;;;;;14.91;75.20;101938.34;4988045;28;20084;-61
2022/05/17 04:59:47;;;;;;;12.40;8.30;;;;;;;14.87;75.10;101936.00;4988023;28;20041;-62
2022/05/17 05:02:12;;;;;;;13.48;8.40;;;;;;;14.91;74.98;101946.19;4986510;28;20034;-61
2022/05/17 05:04:38;;;;;;;12.70;8.18;;;;;;;14.92;75.30;101942.63;4987973;28;20462;-61
2022/05/17 05:07:05;;;;;;;12.48;8.35;;;;;;;15.01;74.89;101957.53;4970064;28;20105;-61
2022/05/17 05:09:31;;;;;;;12.52;8.90;;;;;;;14.96;75.25;101954.47;4987698;28;20061;-61
2022/05/17 05:11:57;;;;;;;14.77;8.65;;;;;;;14.96;75.12;101947.44;4986768;28;20070;-64
2022/05/17 05:14:22;;;;;;;12.48;8.43;;;;;;;15.05;74.65;101948.50;4986736;28;20050;-65
2022/05/17 05:16:47;;;;;;;13.52;8.48;;;;;;;15.05;74.52;101956.34;4988384;28;20874;-61
2022/05/17 05:19:13;;;;;;;12.38;8.80;;;;;;;15.07;75.83;101957.03;4998620;28;20040;-61
2022/05/17 05:21:38;;;;;;;13.63;8.80;;;;;;;15.00;75.28;101956.72;4990884;28;20038;-61
2022/05/17 05:24:04;;;;;;;12.73;9.10;;;;;;;15.12;76.09;101970.53;4985898;28;20038;-61
2022/05/17 05:26:32;;;;;;;13.93;9.02;;;;;;;15.12;75.58;101978.38;4987156;28;20505;-66
2022/05/17 05:28:58;;;;;;;12.13;9.23;;;;;;;15.21;75.24;101966.34;4987292;28;20453;-65
2022/05/17 05:31:23;;;;;;;13.27;9.25;;;;;;;15.20;75.37;101972.53;4987503;28;20113;-61
2022/05/17 05:33:48;;;;;;;12.70;9.43;;;;;;;15.24;74.57;101974.75;4987931;28;20026;-60
2022/05/17 05:36:14;;;;;;;13.27;9.95;;;;;;;15.22;75.69;101979.28;4987149;28;20028;-62
2022/05/17 05:38:39;;;;;;;14.63;9.90;;;;;;;15.27;74.94;101982.34;4987431;28;20057;-61
2022/05/17 05:41:05;;;;;;;13.60;9.50;;;;;;;15.30;75.22;101989.91;4987264;28;20034;-62
2022/05/17 05:43:30;;;;;;;13.52;9.68;;;;;;;15.36;74.78;101985.97;4986593;28;20034;-62
2022/05/17 05:45:56;;;;;;;14.00;10.60;;;;;;;15.28;76.31;101986.63;4986870;28;20090;-61
2022/05/17 05:48:21;;;;;;;13.15;9.52;;;;;;;15.49;74.62;101988.41;4986372;28;20521;-61
2022/05/17 05:50:47;;;;;;;15.35;9.93;;;;;;;15.48;75.43;101994.56;4987841;28;20042;-62
2022/05/17 05:53:14;;;;;;;13.57;9.95;;;;;;;15.58;74.30;102004.13;4987203;28;20390;-62
2022/05/17 05:55:40;;;;;;;16.55;10.55;;;;;;;15.63;75.67;102001.16;4987440;28;20026;-61
2022/05/17 05:58:06;;;;;;;15.73;10.63;;;;;;;15.75;75.05;102000.13;4987328;28;20255;-62
2022/05/17 06:00:33;;;;;;;14.48;10.63;;;;;;;15.66;75.49;101995.69;4985416;28;20402;-61
2022/05/17 06:02:59;;;;;;;15.35;10.98;;;;;;;15.69;75.90;101987.56;4987524;28;20427;-61
2022/05/17 06:05:25;;;;;;;15.75;11.43;;;;;;;15.80;75.68;102003.19;4987227;28;20499;-63
2022/05/17 06:07:51;;;;;;;16.80;11.00;;;;;;;15.86;75.58;101992.19;4990822;28;20459;-61
2022/05/17 06:10:18;;;;;;;19.25;11.45;;;;;;;15.90;75.42;101998.84;4989724;28;20038;-62
2022/05/17 06:12:43;;;;;;;15.52;11.73;;;;;;;15.93;74.73;102003.78;4990981;28;20522;-61
2022/05/17 06:15:09;;;;;;;16.85;12.18;;;;;;;15.98;76.18;102010.44;4990490;28;20026;-61
2022/05/17 06:17:39;;;;;;;15.60;11.27;;;;;;;15.97;75.02;102006.97;5009065;28;20025;-61
2022/05/17 06:20:05;;;;;;;18.17;11.90;;;;;;;16.04;74.86;102007.28;4992089;28;20042;-62
2022/05/17 06:22:31;;;;;;;17.15;11.95;;;;;;;16.03;74.84;102008.25;4990167;28;20138;-61
2022/05/17 06:24:56;;;;;;;16.95;11.38;;;;;;;16.08;74.73;102006.88;4990640;28;20133;-64
2022/05/17 06:27:22;;;;;;;17.73;11.73;;;;;;;16.19;73.78;102005.97;4972970;28;20552;-63
2022/05/17 06:29:47;;;;;;;16.30;12.10;;;;;;;16.23;73.85;102004.75;4990040;28;20038;-61
2022/05/17 06:32:15;;;;;;;14.63;10.98;;;;;;;16.22;73.37;102003.06;4990245;28;20065;-61
2022/05/17 06:34:41;;;;;;;16.33;11.98;;;;;;;16.22;73.54;102013.53;4989444;28;20036;-61
2022/05/17 06:37:07;;;;;;;17.38;13.20;;;;;;;16.22;74.53;102010.91;4990907;28;20616;-61
2022/05/17 06:39:33;;;;;;;16.67;12.45;;;;;;;16.24;74.94;102016.06;4990507;28;20347;-65
2022/05/17 06:41:59;;;;;;;14.90;12.45;;;;;;;16.26;74.59;102011.50;4989928;28;20050;-63
2022/05/17 06:44:24;;;;;;;16.45;12.30;;;;;;;16.29;74.59;102006.84;4988343;28;20201;-61
2022/05/17 06:46:49;;;;;;;15.05;13.20;;;;;;;16.32;75.68;102017.03;4989022;28;20021;-62
2022/05/17 06:49:16;;;;;;;15.43;12.50;;;;;;;16.36;75.00;102021.03;4990277;28;20023;-61
2022/05/17 06:51:42;;;;;;;16.95;12.38;;;;;;;16.50;73.77;102024.22;4989680;28;20026;-61
2022/05/17 06:54:07;;;;;;;16.35;12.98;;;;;;;16.48;75.11;102016.53;4956654;28;20471;-61
2022/05/17 06:56:36;;;;;;;17.30;12.50;;;;;;;16.61;74.28;102027.56;4987822;28;20038;-64
2022/05/17 06:59:03;;;;;;;17.13;12.25;;;;;;;16.69;73.06;102021.66;4972116;28;20128;-61
2022/05/17 07:01:28;;;;;;;16.60;11.75;;;;;;;16.71;72.94;102027.63;4989731;28;20510;-61
2022/05/17 07:03:54;;;;;;;16.50;12.00;;;;;;;16.80;73.61;102026.78;4970542;28;20039;-61
2022/05/17 07:06:20;;;;;;;18.05;12.75;;;;;;;16.82;73.84;102027.50;4969978;28;20034;-61
2022/05/17 07:08:46;;;;;;;13.90;11.32;;;;;;;16.93;73.07;102032.63;4985023;28;20030;-60
2022/05/17 07:14:05;;;;;;;14.93;10.60;;;;;;;17.04;71.93;102036.06;4947742;29;20809;-62
2022/05/17 07:16:31;;;;;;;14.25;10.80;;;;;;;17.09;73.65;102033.84;4938477;29;20036;-61
2022/05/17 07:18:56;;;;;;;16.17;10.68;;;;;;;17.01;72.75;102023.22;4930581;29;20509;-63
2022/05/17 07:21:22;;;;;;;15.38;10.20;;;;;;;17.08;72.51;102025.16;4929350;29;20586;-62
2022/05/17 07:23:47;;;;;;;13.70;9.55;;;;;;;17.12;71.66;102033.56;4929368;29;20551;-61
2022/05/17 07:26:13;;;;;;;15.15;9.88;;;;;;;17.14;72.75;102029.84;4928892;29;20055;-63
2022/05/17 07:28:48;;;;;;;12.90;9.52;;;;;;;17.19;71.71;102024.19;4942576;29;20047;-62
2022/05/17 07:31:14;;;;;;;12.93;9.45;;;;;;;17.15;70.56;102026.28;4947250;29;20031;-64
2022/05/17 07:33:39;;;;;;;13.18;8.90;;;;;;;17.23;71.08;102036.06;4948268;29;20031;-61
2022/05/17 07:36:07;;;;;;;13.23;9.20;;;;;;;17.17;72.08;102040.06;4948193;29;20059;-61
2022/05/17 07:38:33;;;;;;;10.80;4.10;;;;;;;17.09;64.73;102018.09;4947938;29;20050;-61
2022/05/17 07:40:58;;;;;;;8.77;3.17;;;;;;;17.12;64.90;102044.06;4947531;29;20039;-62
2022/05/17 07:43:24;;;;;;;9.48;3.75;;;;;;;17.12;65.60;102028.34;4946430;29;20122;-61
2022/05/17 07:45:50;;;;;;;8.55;3.50;;;;;;;17.05;67.39;102030.69;4947538;29;20078;-61
2022/05/17 07:48:17;;;;;;;9.88;4.05;;;;;;;17.12;67.26;102036.19;4947073;29;20043;-61
2022/05/17 07:50:42;;;;;;;9.57;3.85;;;;;;;17.12;67.03;102038.81;4981944;28;20046;-61
2022/05/17 07:53:11;;;;;;;8.85;3.38;;;;;;;17.08;67.06;102047.91;5008203;28;20033;-64
2022/05/17 07:55:38;;;;;;;10.85;4.10;;;;;;;17.08;67.33;102043.50;5005272;28;20041;-61
2022/05/17 07:58:04;;;;;;;10.80;4.10;;;;;;;17.16;66.46;102046.28;4988383;28;20096;-61
2022/05/17 08:00:30;;;;;;;9.48;4.43;;;;;;;17.15;64.79;102043.81;5008016;28;20104;-62
2022/05/17 08:02:58;;;;;;;11.00;4.38;;;;;;;17.25;63.87;102044.59;4989510;28;20041;-62
2022/05/17 08:05:24;;;;;;;11.20;4.82;;;;;;;17.31;63.65;102038.78;4988844;28;20058;-61
2022/05/17 08:07:49;;;;;;;12.10;4.00;;;;;;;17.31;63.84;102038.78;4987335;28;20037;-61
2022/05/17 08:10:15;;;;;;;10.90;3.88;;;;;;;17.42;64.08;102036.03;4988047;28;20030;-63
2022/05/17 08:12:41;;;;;;;9.35;3.58;;;;;;;17.44;64.57;102034.09;4988368;28;20073;-65
2022/05/17 08:15:07;;;;;;;9.80;3.70;;;;;;;17.53;63.49;102049.00;4988750;28;20506;-61
2022/05/17 08:17:33;;;;;;;10.52;3.90;;;;;;;17.57;63.24;102043.47;4990429;28;20462;-61
2022/05/17 08:19:58;;;;;;;11.18;4.05;;;;;;;17.57;62.13;102038.22;5006360;28;20036;-62
2022/05/17 08:22:23;;;;;;;10.50;4.03;;;;;;;17.65;62.25;102051.44;5008065;28;20026;-61
2022/05/17 08:27:39;;;;;;;11.88;4.95;;;;;;;17.72;61.87;102048.16;4988542;28;20121;-61
2022/05/17 08:30:10;;;;;;;10.05;4.53;;;;;;;17.69;62.84;102044.97;4987855;28;20022;-61
2022/05/17 08:35:20;;;;;;;11.32;4.80;;;;;;;17.73;63.64;102055.06;4987605;28;20497;-61
2022/05/17 08:37:45;;;;;;;12.32;4.80;;;;;;;17.85;64.14;102053.09;4988259;28;20022;-64
2022/05/17 08:40:18;;;;;;;11.75;4.43;;;;;;;17.80;62.46;102057.94;4987688;28;20054;-61
2022/05/17 08:42:58;;;;;;;10.25;4.18;;;;;;;17.91;62.99;102041.22;4987593;28;20053;-63
2022/05/17 08:45:32;;;;;;;11.57;4.10;;;;;;;17.96;62.27;102039.81;4987850;28;20030;-65
2022/05/17 08:47:58;;;;;;;10.60;5.00;;;;;;;18.06;63.43;102045.00;4987754;28;20455;-62
2022/05/17 08:50:26;;;;;;;11.15;5.40;;;;;;;18.09;63.22;102052.59;4997149;28;20030;-61
2022/05/17 08:52:54;;;;;;;11.35;5.75;;;;;;;18.13;63.65;102050.53;5007583;28;20038;-62
2022/05/17 08:55:40;;;;;;;10.77;5.80;;;;;;;18.16;63.18;102042.34;5006040;28;20108;-63
2022/05/17 08:58:13;;;;;;;13.90;6.50;;;;;;;18.26;64.46;102043.13;4987418;28;20474;-62
2022/05/17 09:00:42;;;;;;;10.73;5.78;;;;;;;18.29;63.57;102040.19;4988119;28;20026;-61
2022/05/17 09:03:40;;;;;;;12.85;6.18;;;;;;;18.36;63.49;102046.53;4987826;28;20516;-63
2022/05/17 09:06:38;;;;;;;12.55;6.97;;;;;;;18.46;64.07;102047.28;4983017;28;20129;-64
2022/05/17 09:09:19;;;;;;;13.85;7.38;;;;;;;18.47;65.36;102043.72;4987591;28;20033;-61
2022/05/17 09:11:56;;;;;;;12.77;6.65;;;;;;;18.49;62.79;102047.00;4987833;28;20022;-61
2022/05/17 09:14:29;;;;;;;11.77;7.10;;;;;;;18.52;63.68;102049.38;4987362;28;20060;-61
2022/05/17 09:17:07;;;;;;;13.57;6.63;;;;;;;18.61;62.96;102044.19;4997154;28;20049;-61
2022/05/17 09:19:33;;;;;;;;;;;;;;;18.74;62.97;102042.88;4994238;28;20034;-61
2022/05/17 09:22:02;;;;;;;13.13;6.20;;;;;;;18.73;62.28;102043.03;4987681;28;20385;-61
2022/05/17 09:24:35;;;;;;;11.98;5.38;;;;;;;18.78;61.49;102041.59;4971589;28;20073;-61
2022/05/17 09:27:02;;;;;;;10.45;5.18;;;;;;;18.79;60.83;102042.44;4987508;28;20034;-61
2022/05/17 09:29:36;;;;;;;9.57;3.92;;;;;;;18.83;59.42;102041.16;4987719;28;20507;-61
2022/05/17 09:32:06;;;;;;;9.10;3.22;;;;;;;18.87;60.03;102045.16;4986468;28;20031;-61
2022/05/17 09:34:43;;;;;;;10.68;4.43;;;;;;;18.81;59.57;102027.34;4984363;28;20451;-61
2022/05/17 09:37:18;;;;;;;12.10;5.70;;;;;;;18.95;60.18;102042.59;4985828;28;20034;-64
2022/05/17 09:39:48;;;;;;;13.75;5.85;;;;;;;18.93;60.12;102034.03;4987098;28;20057;-63
2022/05/17 09:42:53;;;;;;;15.90;6.88;;;;;;;19.11;61.16;102036.66;4989618;28;20038;-65
2022/05/17 09:45:20;;;;;;;13.80;7.93;;;;;;;19.17;60.65;102033.41;4990480;28;20307;-62
2022/05/17 09:47:59;;;;;;;12.98;8.60;;;;;;;19.23;60.86;102039.88;4991212;28;20470;-61
2022/05/17 09:53:18;;;;;;;12.98;7.40;;;;;;;19.31;61.15;102032.03;5009246;28;20377;-61
2022/05/17 09:55:49;;;;;;;12.35;7.93;;;;;;;19.34;60.05;102039.63;4990919;28;20054;-64
2022/05/17 09:58:33;;;;;;;10.90;7.57;;;;;;;19.42;60.56;102034.41;4991069;28;20038;-62
2022/05/17 10:01:00;;;;;;;14.10;7.40;;;;;;;19.45;59.87;102028.88;4991078;28;20212;-61
2022/05/17 10:03:32;;;;;;;13.15;7.88;;;;;;;19.57;60.04;102027.63;4991143;28;20037;-62
2022/05/17 10:06:14;;;;;;;13.80;7.75;;;;;;;19.62;60.63;102020.13;4990727;28;20026;-61
2022/05/17 10:08:59;;;;;;;11.88;7.45;;;;;;;19.77;60.15;102022.16;4990524;28;20057;-61
2022/05/17 10:11:27;;;;;;;12.23;7.68;;;;;;;19.73;59.90;102026.13;4990577;28;20398;-62
2022/05/17 10:14:21;;;;;;;14.13;7.32;;;;;;;20.02;60.51;102026.59;4990996;28;20050;-62
2022/05/17 10:17:07;;;;;;;12.43;7.53;;;;;;;20.08;59.71;102025.13;5002472;28;20026;-62
2022/05/17 10:19:50;;;;;;;12.80;6.78;;;;;;;20.12;58.40;102027.28;4996743;28;20030;-61
2022/05/17 10:22:40;;;;;;;10.90;6.28;;;;;;;20.17;59.01;102014.44;4990362;28;20018;-62
2022/05/17 10:25:15;;;;;;;12.98;6.32;;;;;;;20.16;57.56;102018.06;4974107;28;20100;-64
2022/05/17 10:27:48;;;;;;;11.43;6.47;;;;;;;20.35;58.10;102022.25;4990948;28;20039;-62
2022/05/17 10:30:26;;;;;;;11.40;6.70;;;;;;;20.43;58.32;101997.75;4972554;28;20178;-63
2022/05/17 10:32:59;;;;;;;12.60;6.97;;;;;;;20.50;58.32;101998.78;4990610;28;20030;-61
2022/05/17 10:35:38;;;;;;;10.90;7.00;;;;;;;20.60;58.19;102007.38;4990361;28;20034;-61
2022/05/17 10:38:28;;;;;;;13.07;7.05;;;;;;;20.69;58.38;102001.09;4990355;28;20041;-61
2022/05/17 10:40:55;;;;;;;12.98;7.80;;;;;;;20.76;57.28;102005.72;4989413;28;20038;-61
2022/05/17 10:43:28;;;;;;;14.13;8.20;;;;;;;20.85;56.33;102002.13;4989967;28;20035;-63
2022/05/17 10:46:02;;;;;;;12.13;7.70;;;;;;;20.95;57.08;101997.50;4990426;28;20061;-61
2022/05/17 10:48:58;;;;;;;12.75;7.70;;;;;;;21.02;57.48;102003.78;4988742;28;20514;-67
2022/05/17 10:51:45;;;;;;;10.70;7.88;;;;;;;21.05;56.31;101998.19;5004841;28;20048;-62
2022/05/17 10:54:33;;;;;;;12.18;8.00;;;;;;;21.04;56.58;102007.06;4989636;28;20022;-61
2022/05/17 10:57:33;;;;;;;13.35;8.70;;;;;;;21.10;57.10;101990.56;4989792;28;20030;-61
2022/05/17 11:00:14;;;;;;;13.60;8.30;;;;;;;21.02;57.16;101997.69;4990104;28;20503;-61
2022/05/17 11:02:54;;;;;;;10.75;7.95;;;;;;;20.98;55.95;101991.91;4990467;28;20387;-61
2022/05/17 11:06:02;;;;;;;12.07;7.32;;;;;;;21.03;56.74;101989.59;4989855;28;20049;-62
2022/05/17 11:08:33;;;;;;;11.80;6.32;;;;;;;20.95;55.52;101993.06;4988874;28;20057;-61
2022/05/17 11:11:17;;;;;;;12.05;6.30;;;;;;;21.05;56.31;101984.16;4989259;28;20475;-62
2022/05/17 11:14:06;;;;;;;12.05;6.05;;;;;;;21.12;55.88;101983.34;4989620;28;20406;-61
2022/05/17 11:16:37;;;;;;;9.40;6.00;;;;;;;21.17;55.42;101981.03;4989442;28;20497;-66
2022/05/17 11:19:10;;;;;;;10.45;5.90;;;;;;;21.24;56.17;101973.25;4981894;28;20060;-62
2022/05/17 11:22:03;;;;;;;11.77;7.32;;;;;;;21.33;54.75;101968.81;4989586;28;20059;-61
2022/05/17 11:25:08;;;;;;;11.35;6.85;;;;;;;21.39;54.41;101962.84;4979821;28;20031;-61
2022/05/17 11:27:39;;;;;;;11.13;6.80;;;;;;;21.49;54.45;101963.50;4989689;28;20033;-63
2022/05/17 11:30:09;;;;;;;10.98;6.75;;;;;;;21.57;53.70;101963.50;4989526;28;20166;-62
2022/05/17 11:32:42;;;;;;;10.48;6.72;;;;;;;21.63;53.44;101960.16;4990030;28;20051;-64
2022/05/17 11:35:29;;;;;;;10.00;6.07;;;;;;;21.68;53.43;101957.84;4988831;28;20033;-65
2022/05/17 11:37:55;;;;;;;10.10;6.10;;;;;;;21.88;52.81;101952.97;4989327;28;20034;-62
2022/05/17 11:40:56;;;;;;;10.10;5.60;;;;;;;22.00;52.41;101956.84;4988262;28;20030;-62